Time;durP1;ratioP1;P1;durP2;ratioP2;P2;SDS_P1;SDS_P2;PMS_P1;PMS_P2;Temp;Humidity;BMP_temperature;BMP_pressure;BME280_temperature;BME280_humidity;BME280_pressure;Samples;Min_cycle;Max_cycle;Signal;HPM_P1;HPM_P2
2022/07/06 00:01:01;;;;;;;4.03;3.50;;;25.60;59.10;;;;;;5094290;28;20024;-60
2022/07/06 00:03:26;;;;;;;3.83;3.28;;;25.60;59.10;;;;;;5103299;28;20478;-60
2022/07/06 00:05:52;;;;;;;3.50;3.20;;;25.60;59.20;;;;;;5093928;28;20024;-60
2022/07/06 00:08:18;;;;;;;3.72;3.30;;;25.60;59.30;;;;;;5096390;28;20039;-60
2022/07/06 00:10:43;;;;;;;3.40;2.90;;;25.50;59.20;;;;;;5100228;28;20024;-60
2022/07/06 00:13:09;;;;;;;3.72;3.05;;;25.50;59.20;;;;;;5109666;28;20514;-58
2022/07/06 00:15:35;;;;;;;3.33;2.83;;;25.50;59.30;;;;;;5099170;28;20752;-60
2022/07/06 00:18:00;;;;;;;3.45;3.15;;;25.50;59.50;;;;;;5101115;28;20149;-60
2022/07/06 00:20:26;;;;;;;3.22;2.90;;;25.50;59.50;;;;;;5092527;28;20024;-59
2022/07/06 00:22:52;;;;;;;3.85;3.45;;;25.50;59.40;;;;;;5094149;28;20020;-60
2022/07/06 00:25:18;;;;;;;4.32;3.72;;;25.50;59.40;;;;;;5099743;28;20121;-59
2022/07/06 00:27:43;;;;;;;3.75;3.28;;;25.40;59.40;;;;;;5094408;28;20098;-60
2022/07/06 00:30:09;;;;;;;4.32;3.10;;;25.40;59.40;;;;;;5103150;28;20390;-60
2022/07/06 00:32:35;;;;;;;3.78;3.28;;;25.40;59.50;;;;;;5101148;28;20118;-60
2022/07/06 00:35:00;;;;;;;3.45;3.15;;;25.40;59.70;;;;;;5101001;28;20060;-60
2022/07/06 00:37:26;;;;;;;4.20;3.70;;;25.40;59.70;;;;;;5096659;28;20028;-60
2022/07/06 00:39:52;;;;;;;3.72;3.25;;;25.30;59.70;;;;;;5094136;28;20024;-60
2022/07/06 00:42:17;;;;;;;4.07;3.17;;;25.30;59.90;;;;;;5098240;28;20533;-59
2022/07/06 00:44:43;;;;;;;3.92;3.40;;;25.30;60.00;;;;;;5098895;28;20077;-60
2022/07/06 00:47:08;;;;;;;3.70;3.38;;;25.30;60.10;;;;;;5096935;28;20470;-60
2022/07/06 00:52:19;;;;;;;4.75;3.65;;;25.20;60.20;;;;;;5098332;27;20035;-59
2022/07/06 00:54:46;;;;;;;4.38;3.88;;;25.20;60.30;;;;;;5100626;27;20472;-60
2022/07/06 00:57:12;;;;;;;4.85;4.35;;;25.20;60.50;;;;;;5097857;28;20036;-59
2022/07/06 00:59:37;;;;;;;5.35;3.88;;;25.20;60.50;;;;;;5104242;28;20464;-60
2022/07/06 01:02:03;;;;;;;4.22;3.80;;;25.10;60.70;;;;;;5096967;28;20035;-59
2022/07/06 01:04:29;;;;;;;4.90;4.18;;;25.10;60.80;;;;;;5110590;28;20435;-60
2022/07/06 01:06:56;;;;;;;4.85;4.20;;;25.10;61.10;;;;;;5099715;28;20478;-60
2022/07/06 01:09:22;;;;;;;4.20;3.80;;;25.10;61.30;;;;;;5098789;28;20411;-60
2022/07/06 01:11:48;;;;;;;4.63;4.13;;;25.10;61.50;;;;;;5085091;28;20023;-60
2022/07/06 01:14:15;;;;;;;4.15;3.65;;;25.10;61.60;;;;;;5102182;28;20043;-60
2022/07/06 01:16:41;;;;;;;4.68;4.10;;;25.10;61.90;;;;;;5100538;28;20035;-60
2022/07/06 01:19:06;;;;;;;5.38;4.05;;;25.00;62.20;;;;;;5099777;28;20379;-59
2022/07/06 01:21:32;;;;;;;4.32;3.92;;;25.00;62.10;;;;;;5096683;28;20487;-60
2022/07/06 01:23:58;;;;;;;4.47;4.03;;;25.00;62.40;;;;;;5103608;28;20070;-60
2022/07/06 01:26:23;;;;;;;4.85;4.35;;;25.00;62.50;;;;;;5096653;28;20043;-60
2022/07/06 01:28:50;;;;;;;4.88;3.75;;;25.00;62.60;;;;;;5100567;28;20099;-59
2022/07/06 01:31:22;;;;;;;4.95;4.15;;;25.00;63.30;;;;;;5100687;28;20036;-60
2022/07/06 01:33:52;;;;;;;5.03;4.05;;;25.00;62.60;;;;;;5106107;28;20072;-60
2022/07/06 01:36:18;;;;;;;;;;;25.00;62.80;;;;;;5105497;28;20028;-60
2022/07/06 01:38:45;;;;;;;4.75;3.47;;;25.00;62.80;;;;;;5101928;28;20001;-60
2022/07/06 01:41:11;;;;;;;4.00;3.15;;;25.00;62.70;;;;;;5098777;27;20540;-60
2022/07/06 01:43:37;;;;;;;3.92;3.40;;;25.00;62.70;;;;;;5098097;28;20062;-60
2022/07/06 01:46:03;;;;;;;4.28;3.25;;;25.00;62.80;;;;;;5104867;28;20055;-60
2022/07/06 01:48:28;;;;;;;3.75;3.35;;;25.00;63.00;;;;;;5097940;28;20136;-60
2022/07/06 01:50:54;;;;;;;3.40;3.10;;;24.90;63.00;;;;;;5100640;27;20050;-60
2022/07/06 01:53:19;;;;;;;5.53;3.75;;;24.90;63.00;;;;;;5104256;28;20037;-60
2022/07/06 01:55:45;;;;;;;4.72;3.65;;;24.90;63.40;;;;;;5102724;28;20042;-59
2022/07/06 01:58:11;;;;;;;4.25;3.60;;;24.90;63.40;;;;;;5098457;28;20031;-60
2022/07/06 02:00:36;;;;;;;4.38;3.60;;;24.90;63.50;;;;;;5096276;28;20034;-59
2022/07/06 02:03:02;;;;;;;6.07;3.92;;;24.80;63.50;;;;;;5093844;28;20107;-60
2022/07/06 02:05:28;;;;;;;3.70;3.25;;;24.90;63.80;;;;;;5102073;27;20534;-60
2022/07/06 02:07:53;;;;;;;4.28;3.47;;;24.80;63.80;;;;;;5103273;28;20097;-60
2022/07/06 02:10:19;;;;;;;4.18;3.65;;;24.80;64.00;;;;;;5101145;28;20027;-59
2022/07/06 02:12:45;;;;;;;4.50;3.88;;;24.80;63.90;;;;;;5098605;28;20040;-60
2022/07/06 02:15:10;;;;;;;3.97;3.50;;;24.80;64.30;;;;;;5103694;28;20020;-60
2022/07/06 02:17:36;;;;;;;3.90;3.50;;;24.80;64.20;;;;;;5102133;28;20055;-60
2022/07/06 02:20:04;;;;;;;4.05;3.55;;;24.80;64.40;;;;;;5105814;27;20026;-60
2022/07/06 02:22:29;;;;;;;4.32;3.80;;;24.80;64.50;;;;;;5101091;28;20035;-60
2022/07/06 02:24:55;;;;;;;4.90;3.88;;;24.90;64.70;;;;;;5099926;28;20016;-60
2022/07/06 02:27:21;;;;;;;4.32;3.55;;;24.90;64.70;;;;;;5082784;28;20040;-60
2022/07/06 02:29:46;;;;;;;4.20;3.65;;;24.90;64.90;;;;;;5101197;28;20076;-60
2022/07/06 02:32:12;;;;;;;4.38;3.78;;;24.90;65.00;;;;;;5097764;28;20095;-60
2022/07/06 02:34:37;;;;;;;4.50;3.78;;;25.00;65.20;;;;;;5106406;28;20479;-60
2022/07/06 02:37:03;;;;;;;4.63;3.50;;;25.00;65.30;;;;;;5099204;28;20021;-60
2022/07/06 02:39:29;;;;;;;5.07;3.95;;;25.00;65.30;;;;;;5098456;28;20145;-60
2022/07/06 02:41:54;;;;;;;3.90;3.40;;;25.00;64.80;;;;;;5101382;28;20019;-60
2022/07/06 02:44:20;;;;;;;4.13;3.50;;;25.10;64.60;;;;;;5101260;28;20533;-60
2022/07/06 02:46:46;;;;;;;4.57;3.92;;;25.20;64.20;;;;;;5094624;28;20030;-60
2022/07/06 02:49:11;;;;;;;6.40;3.63;;;25.20;64.10;;;;;;5097589;28;20064;-60
2022/07/06 02:51:37;;;;;;;4.65;3.75;;;25.30;64.00;;;;;;5104608;28;20026;-60
2022/07/06 02:54:03;;;;;;;4.70;3.78;;;25.30;63.60;;;;;;5098094;28;20495;-60
2022/07/06 02:56:28;;;;;;;3.83;3.25;;;25.40;63.60;;;;;;5102955;28;20498;-60
2022/07/06 02:58:54;;;;;;;6.68;4.40;;;25.40;63.40;;;;;;5097031;28;20032;-60
2022/07/06 03:01:20;;;;;;;5.13;4.45;;;25.50;63.50;;;;;;5100283;28;20059;-60
2022/07/06 03:03:45;;;;;;;5.00;4.18;;;25.50;63.40;;;;;;5099448;28;20024;-60
2022/07/06 03:06:11;;;;;;;6.05;4.75;;;25.50;63.30;;;;;;5093534;28;20058;-60
2022/07/06 03:08:37;;;;;;;4.13;3.72;;;25.60;63.30;;;;;;5103385;28;20020;-60
2022/07/06 03:11:03;;;;;;;4.97;4.13;;;25.60;63.40;;;;;;5099323;28;20106;-60
2022/07/06 03:13:28;;;;;;;5.45;4.68;;;25.70;63.00;;;;;;5099750;28;20106;-60
2022/07/06 03:15:55;;;;;;;5.63;4.40;;;25.70;62.90;;;;;;5102413;28;20031;-60
2022/07/06 03:18:20;;;;;;;7.75;4.70;;;25.70;62.70;;;;;;5097876;27;20027;-60
2022/07/06 03:20:46;;;;;;;5.05;4.47;;;25.80;62.80;;;;;;5103552;28;20483;-60
2022/07/06 03:23:12;;;;;;;5.75;4.45;;;25.80;62.50;;;;;;5094105;28;20024;-60
2022/07/06 03:25:37;;;;;;;4.60;4.18;;;25.80;62.60;;;;;;5103681;28;20062;-60
2022/07/06 03:28:03;;;;;;;5.60;4.75;;;25.80;62.60;;;;;;5099172;28;20040;-60
2022/07/06 03:30:29;;;;;;;5.20;4.35;;;25.80;62.60;;;;;;5078550;28;20036;-60
2022/07/06 03:32:54;;;;;;;4.38;3.97;;;25.90;62.70;;;;;;5100618;27;20034;-60
2022/07/06 03:35:20;;;;;;;5.18;4.40;;;25.90;62.90;;;;;;5095683;28;20028;-60
2022/07/06 03:37:46;;;;;;;4.97;4.30;;;26.10;63.10;;;;;;5107300;28;20028;-60
2022/07/06 03:40:12;;;;;;;4.28;3.53;;;26.30;63.20;;;;;;5100684;28;20495;-60
2022/07/06 03:42:37;;;;;;;4.47;3.60;;;26.60;63.30;;;;;;5099466;28;20502;-60
2022/07/06 03:45:05;;;;;;;3.92;3.13;;;26.90;63.30;;;;;;5099637;28;20032;-60
2022/07/06 03:47:30;;;;;;;4.10;3.63;;;27.30;63.20;;;;;;5091599;27;20044;-60
2022/07/06 03:49:56;;;;;;;3.75;3.03;;;27.90;63.00;;;;;;5096953;28;20412;-60
2022/07/06 03:52:22;;;;;;;5.05;3.47;;;28.70;62.30;;;;;;5091207;28;20542;-60
2022/07/06 03:54:47;;;;;;;4.20;3.63;;;29.60;61.30;;;;;;5096876;28;20502;-60
2022/07/06 03:57:13;;;;;;;5.32;3.13;;;30.50;60.10;;;;;;5105140;28;20024;-60
2022/07/06 03:59:40;;;;;;;4.75;3.60;;;31.40;58.50;;;;;;5093326;28;20097;-60
2022/07/06 04:02:05;;;;;;;4.70;3.67;;;32.30;57.50;;;;;;5100806;28;20482;-58
2022/07/06 04:04:33;;;;;;;4.28;3.65;;;33.10;56.30;;;;;;5080669;28;20031;-58
2022/07/06 04:06:58;;;;;;;3.15;2.85;;;34.00;54.80;;;;;;5099133;28;20110;-58
2022/07/06 04:09:24;;;;;;;4.53;3.28;;;34.70;53.90;;;;;;5100755;28;20119;-58
2022/07/06 04:11:50;;;;;;;4.72;3.40;;;35.50;53.10;;;;;;5096265;28;20023;-58
2022/07/06 04:14:15;;;;;;;4.25;3.85;;;36.20;52.10;;;;;;5098335;28;20492;-58
2022/07/06 04:16:41;;;;;;;4.15;3.60;;;36.80;51.30;;;;;;5098849;28;20012;-58
2022/07/06 04:19:07;;;;;;;5.15;3.22;;;37.50;50.30;;;;;;5097064;28;20081;-58
2022/07/06 04:21:32;;;;;;;4.28;3.78;;;38.20;49.40;;;;;;5095898;28;20032;-58
2022/07/06 04:23:58;;;;;;;3.83;3.33;;;38.70;48.30;;;;;;5097251;28;20031;-58
2022/07/06 04:26:24;;;;;;;3.75;3.35;;;39.30;47.60;;;;;;5099360;27;20076;-58
2022/07/06 04:28:50;;;;;;;3.90;3.40;;;39.80;46.90;;;;;;5102717;28;20506;-59
2022/07/06 04:31:15;;;;;;;3.90;3.40;;;40.30;46.10;;;;;;5104477;28;20483;-57
2022/07/06 04:33:42;;;;;;;4.20;3.80;;;40.70;45.70;;;;;;5097704;28;20119;-59
2022/07/06 04:36:09;;;;;;;4.68;3.58;;;41.20;45.30;;;;;;5104739;28;20028;-59
2022/07/06 04:38:35;;;;;;;5.22;3.67;;;41.60;44.50;;;;;;5105073;28;20027;-59
2022/07/06 04:41:00;;;;;;;4.90;4.40;;;42.00;44.10;;;;;;5107336;28;20043;-58
2022/07/06 04:43:26;;;;;;;3.80;3.40;;;42.30;43.30;;;;;;5100799;28;20028;-58
2022/07/06 04:45:52;;;;;;;4.50;3.75;;;42.50;43.00;;;;;;5093658;28;20465;-59
2022/07/06 04:48:17;;;;;;;5.00;3.90;;;42.80;42.80;;;;;;5092395;28;20177;-58
2022/07/06 04:50:43;;;;;;;4.18;3.67;;;43.10;42.40;;;;;;5101114;27;20024;-59
2022/07/06 04:53:09;;;;;;;4.00;3.50;;;43.20;41.80;;;;;;5100664;27;20016;-58
2022/07/06 04:55:35;;;;;;;6.97;3.75;;;43.40;41.50;;;;;;5098362;28;20663;-59
2022/07/06 04:58:01;;;;;;;3.95;3.55;;;43.60;41.50;;;;;;5105340;28;20031;-59
2022/07/06 05:00:26;;;;;;;4.18;3.78;;;43.70;41.10;;;;;;5103560;28;20071;-59
2022/07/06 05:02:52;;;;;;;5.05;4.10;;;43.90;41.00;;;;;;5102549;28;20532;-59
2022/07/06 05:05:18;;;;;;;3.90;3.50;;;44.10;40.60;;;;;;5097617;28;20034;-59
2022/07/06 05:07:44;;;;;;;4.38;3.85;;;44.20;40.60;;;;;;5102542;28;20399;-59
2022/07/06 05:10:10;;;;;;;4.45;3.92;;;44.40;40.40;;;;;;5108462;28;20020;-59
2022/07/06 05:12:36;;;;;;;6.32;5.05;;;44.40;40.00;;;;;;5102542;28;20028;-59
2022/07/06 05:15:02;;;;;;;5.90;4.78;;;44.40;39.40;;;;;;5102694;28;20024;-59
2022/07/06 05:17:28;;;;;;;5.18;3.97;;;44.10;39.50;;;;;;5106093;27;20032;-59
2022/07/06 05:19:54;;;;;;;5.32;4.78;;;43.80;39.70;;;;;;5104326;27;20051;-59
2022/07/06 05:22:20;;;;;;;5.28;4.78;;;43.80;39.80;;;;;;5105784;28;20024;-59
2022/07/06 05:24:45;;;;;;;5.65;5.05;;;43.80;39.50;;;;;;5102558;27;20108;-58
2022/07/06 05:27:11;;;;;;;5.78;4.88;;;43.80;39.20;;;;;;5104262;27;20024;-58
2022/07/06 05:29:37;;;;;;;6.05;4.60;;;43.60;39.30;;;;;;5105794;28;20084;-58
2022/07/06 05:32:03;;;;;;;4.95;3.72;;;43.20;38.70;;;;;;5101407;28;20539;-58
2022/07/06 05:34:28;;;;;;;4.20;3.70;;;42.50;39.10;;;;;;5096898;27;20026;-58
2022/07/06 05:36:54;;;;;;;6.55;4.75;;;41.70;39.60;;;;;;5103115;27;20028;-58
2022/07/06 05:39:22;;;;;;;5.63;4.13;;;40.80;40.30;;;;;;5098034;28;20055;-58
2022/07/06 05:41:48;;;;;;;4.55;3.80;;;40.00;41.00;;;;;;5097640;28;20085;-58
2022/07/06 05:44:13;;;;;;;4.00;3.60;;;39.30;41.80;;;;;;5093904;28;20092;-58
2022/07/06 05:46:39;;;;;;;4.32;3.78;;;38.60;42.40;;;;;;5091972;27;20042;-57
2022/07/06 05:51:49;;;;;;;4.28;3.80;;;37.50;43.60;;;;;;5087322;27;20058;-58
2022/07/06 05:54:15;;;;;;;4.85;3.83;;;36.90;44.10;;;;;;5096192;27;20383;-58
2022/07/06 05:56:40;;;;;;;4.10;3.50;;;36.50;44.70;;;;;;5086046;27;20032;-58
2022/07/06 05:59:06;;;;;;;5.75;4.20;;;36.10;45.30;;;;;;5090031;28;20395;-58
2022/07/06 06:01:32;;;;;;;4.28;3.80;;;35.70;45.60;;;;;;5093896;28;20053;-58
2022/07/06 06:03:59;;;;;;;5.47;4.00;;;35.30;46.20;;;;;;5091158;27;20158;-58
2022/07/06 06:06:25;;;;;;;4.57;3.70;;;35.00;46.50;;;;;;5087874;27;20441;-58
2022/07/06 06:08:51;;;;;;;5.13;4.07;;;34.70;46.90;;;;;;5089939;28;20023;-58
2022/07/06 06:11:16;;;;;;;6.35;3.88;;;34.50;47.30;;;;;;5092687;27;20134;-58
2022/07/06 06:13:42;;;;;;;7.47;4.32;;;34.20;47.60;;;;;;5095054;27;20077;-58
2022/07/06 06:16:08;;;;;;;5.13;4.45;;;34.00;48.10;;;;;;5084164;27;20487;-60
2022/07/06 06:18:33;;;;;;;4.15;3.72;;;33.80;48.30;;;;;;5090513;27;20020;-60
2022/07/06 06:20:59;;;;;;;4.43;3.88;;;33.60;48.60;;;;;;5084917;27;20045;-60
2022/07/06 06:23:24;;;;;;;4.72;3.90;;;33.50;49.00;;;;;;5084181;27;20591;-60
2022/07/06 06:25:50;;;;;;;4.82;4.32;;;33.30;49.20;;;;;;5082566;27;20122;-61
2022/07/06 06:28:16;;;;;;;7.03;4.65;;;33.20;49.30;;;;;;5083946;28;20509;-60
2022/07/06 06:30:41;;;;;;;5.53;4.53;;;33.10;49.70;;;;;;5075857;27;20700;-60
2022/07/06 06:33:17;;;;;;;6.05;4.50;;;32.90;49.80;;;;;;5083987;27;20070;-61
2022/07/06 06:35:51;;;;;;;5.13;4.18;;;32.70;50.00;;;;;;5083823;27;20728;-61
2022/07/06 06:38:18;;;;;;;5.60;4.53;;;32.60;50.10;;;;;;5080726;27;20832;-61
2022/07/06 06:40:44;;;;;;;5.03;3.85;;;32.40;50.90;;;;;;5079588;28;20024;-61
2022/07/06 06:43:10;;;;;;;4.25;3.78;;;32.20;50.50;;;;;;5090184;28;20032;-61
2022/07/06 06:45:36;;;;;;;4.57;4.07;;;32.00;50.60;;;;;;5085593;27;20605;-61
2022/07/06 06:48:02;;;;;;;4.85;4.22;;;31.90;50.90;;;;;;5086192;27;20044;-61
2022/07/06 06:50:28;;;;;;;4.20;3.80;;;31.90;51.10;;;;;;5090761;27;20023;-62
2022/07/06 06:52:53;;;;;;;6.07;4.05;;;31.80;51.30;;;;;;5078227;28;21257;-61
2022/07/06 06:55:19;;;;;;;4.82;3.70;;;31.70;51.40;;;;;;5085599;28;20081;-60
2022/07/06 06:57:46;;;;;;;4.35;3.95;;;31.60;51.70;;;;;;5087285;27;20125;-62
2022/07/06 07:00:13;;;;;;;4.45;3.80;;;31.60;51.90;;;;;;5087944;27;20036;-61
2022/07/06 07:02:38;;;;;;;4.82;4.03;;;31.50;52.20;;;;;;5084139;27;20513;-59
2022/07/06 07:05:05;;;;;;;4.22;3.70;;;31.50;52.40;;;;;;5084727;27;20024;-61
2022/07/06 07:07:31;;;;;;;4.43;3.75;;;31.40;52.90;;;;;;5079983;27;20035;-59
2022/07/06 07:09:57;;;;;;;5.13;4.13;;;31.40;53.60;;;;;;5083893;28;20153;-62
2022/07/06 07:12:22;;;;;;;5.72;4.13;;;31.30;53.40;;;;;;5089429;27;21637;-60
2022/07/06 07:14:48;;;;;;;4.95;4.25;;;31.30;53.50;;;;;;5081512;27;20506;-61
2022/07/06 07:17:14;;;;;;;4.35;3.47;;;31.30;53.70;;;;;;5079226;28;20042;-60
2022/07/06 07:19:40;;;;;;;5.82;4.88;;;31.20;53.80;;;;;;5081132;27;20031;-60
2022/07/06 07:22:09;;;;;;;4.75;4.25;;;31.20;54.00;;;;;;5082362;27;20036;-60
2022/07/06 07:24:34;;;;;;;5.97;5.22;;;31.10;53.90;;;;;;5082331;28;20107;-61
2022/07/06 07:27:00;;;;;;;4.82;3.95;;;31.00;54.30;;;;;;5079825;28;21562;-60
2022/07/06 07:29:26;;;;;;;4.40;3.90;;;30.90;54.40;;;;;;5083585;27;20038;-60
2022/07/06 07:31:51;;;;;;;5.95;5.00;;;30.90;54.50;;;;;;5084672;27;20046;-60
2022/07/06 07:34:17;;;;;;;5.93;5.32;;;30.90;54.60;;;;;;5083645;28;20023;-61
2022/07/06 07:36:43;;;;;;;4.78;4.05;;;30.80;54.70;;;;;;5064565;28;20174;-59
2022/07/06 07:39:08;;;;;;;4.57;4.07;;;30.80;54.90;;;;;;5085011;27;20024;-60
2022/07/06 07:41:34;;;;;;;4.82;4.35;;;30.80;55.20;;;;;;5083606;27;20043;-60
2022/07/06 07:44:00;;;;;;;6.28;4.13;;;30.70;55.30;;;;;;5082038;28;20032;-61
2022/07/06 07:46:25;;;;;;;4.80;4.30;;;30.70;55.50;;;;;;5085139;27;20024;-61
2022/07/06 07:48:51;;;;;;;5.05;4.55;;;30.70;55.60;;;;;;5077987;27;20481;-61
2022/07/06 07:51:18;;;;;;;5.25;4.43;;;30.70;55.80;;;;;;5067136;28;20036;-60
2022/07/06 07:53:44;;;;;;;5.68;5.07;;;30.70;55.90;;;;;;5057731;28;20491;-59
2022/07/06 07:56:10;;;;;;;4.80;4.30;;;30.70;56.30;;;;;;5080810;28;20026;-60
2022/07/06 07:58:35;;;;;;;4.93;4.18;;;30.60;56.50;;;;;;5077456;27;20045;-59
2022/07/06 08:01:01;;;;;;;6.07;4.38;;;30.60;56.70;;;;;;5080601;27;20673;-59
2022/07/06 08:03:27;;;;;;;5.70;4.93;;;30.60;56.90;;;;;;5076799;28;20411;-59
2022/07/06 08:05:52;;;;;;;4.90;4.40;;;30.60;57.40;;;;;;5076878;28;20031;-59
2022/07/06 08:08:18;;;;;;;5.18;4.30;;;30.60;57.50;;;;;;5082241;28;20035;-59
2022/07/06 08:10:44;;;;;;;5.03;4.32;;;30.50;57.50;;;;;;5081052;28;20521;-59
2022/07/06 08:13:10;;;;;;;6.68;4.82;;;30.50;57.80;;;;;;5068937;28;20055;-59
2022/07/06 08:15:37;;;;;;;6.00;4.95;;;30.50;58.10;;;;;;5078660;28;20063;-59
2022/07/06 08:18:03;;;;;;;6.47;4.85;;;30.50;58.20;;;;;;5073900;28;20035;-59
2022/07/06 08:20:29;;;;;;;5.95;5.30;;;30.50;58.70;;;;;;5073782;28;20081;-59
2022/07/06 08:22:55;;;;;;;4.90;4.22;;;30.50;59.10;;;;;;5079037;28;20146;-59
2022/07/06 08:25:21;;;;;;;6.65;5.32;;;30.50;59.00;;;;;;5081796;28;20299;-59
2022/07/06 08:27:46;;;;;;;5.28;4.78;;;30.40;59.20;;;;;;5067348;28;20477;-60
2022/07/06 08:30:12;;;;;;;6.70;5.32;;;30.40;59.30;;;;;;5079307;28;20028;-58
2022/07/06 08:32:39;;;;;;;6.00;5.25;;;30.30;59.60;;;;;;5084887;28;20031;-58
2022/07/06 08:35:05;;;;;;;5.60;4.97;;;30.30;59.90;;;;;;5076528;28;20020;-59
2022/07/06 08:37:31;;;;;;;7.03;4.93;;;30.30;60.20;;;;;;5078415;28;20036;-59
2022/07/06 08:39:56;;;;;;;6.35;5.30;;;30.30;60.40;;;;;;5078002;28;20038;-59
2022/07/06 08:42:32;;;;;;;6.50;5.90;;;30.30;60.50;;;;;;5082295;28;20050;-58
2022/07/06 08:45:03;;;;;;;7.10;5.70;;;30.20;60.70;;;;;;5071354;28;20151;-59
2022/07/06 08:47:29;;;;;;;6.22;5.63;;;30.20;61.50;;;;;;5079147;28;20055;-58
2022/07/06 08:49:55;;;;;;;6.38;5.45;;;30.20;61.40;;;;;;5066516;28;20036;-60
2022/07/06 08:52:22;;;;;;;5.72;5.13;;;30.20;61.40;;;;;;5072836;28;20123;-60
2022/07/06 08:54:48;;;;;;;5.75;5.18;;;30.20;61.70;;;;;;5076018;28;20368;-60
2022/07/06 08:57:14;;;;;;;5.75;5.00;;;30.10;61.70;;;;;;5074912;28;20032;-60
2022/07/06 08:59:40;;;;;;;5.80;5.18;;;30.10;61.70;;;;;;5063094;28;20024;-60
2022/07/06 09:02:06;;;;;;;5.60;5.10;;;30.10;62.00;;;;;;5073001;28;20033;-61
2022/07/06 09:04:36;;;;;;;5.97;5.32;;;30.00;62.40;;;;;;5071935;28;20398;-60
2022/07/06 09:07:02;;;;;;;5.63;4.80;;;30.00;62.80;;;;;;5074462;28;20036;-59
2022/07/06 09:09:30;;;;;;;5.80;5.20;;;30.00;63.00;;;;;;5079505;28;21221;-61
2022/07/06 09:11:56;;;;;;;6.97;6.15;;;30.00;63.80;;;;;;5072037;28;20066;-60
2022/07/06 09:14:22;;;;;;;10.15;7.07;;;30.00;63.70;;;;;;5073126;27;20032;-59
2022/07/06 09:17:00;;;;;;;8.50;7.03;;;30.00;64.40;;;;;;5071600;27;20028;-60
2022/07/06 09:19:26;;;;;;;8.40;7.30;;;29.90;64.50;;;;;;5076898;27;20032;-59
2022/07/06 09:21:51;;;;;;;7.40;6.53;;;29.90;65.00;;;;;;5069993;27;20046;-59
2022/07/06 09:24:18;;;;;;;7.43;6.22;;;29.90;64.90;;;;;;5072866;27;20411;-59
2022/07/06 09:26:47;;;;;;;7.78;5.95;;;29.80;65.00;;;;;;5063990;28;20042;-59
2022/07/06 09:29:14;;;;;;;7.63;6.32;;;29.80;64.90;;;;;;5068917;27;20088;-59
2022/07/06 09:31:40;;;;;;;7.40;6.18;;;29.70;64.70;;;;;;5062497;27;20543;-59
2022/07/06 09:34:10;;;;;;;5.60;4.80;;;29.70;64.10;;;;;;5068704;27;22825;-61
2022/07/06 09:36:47;;;;;;;6.00;5.40;;;29.70;64.10;;;;;;5056262;27;20028;-61
2022/07/06 09:39:22;;;;;;;8.07;5.90;;;29.70;64.40;;;;;;5068928;27;20490;-59
2022/07/06 09:41:54;;;;;;;7.22;5.40;;;29.60;64.20;;;;;;5070393;27;20028;-61
2022/07/06 09:44:33;;;;;;;6.35;5.45;;;29.70;63.90;;;;;;5061781;28;20051;-60
2022/07/06 09:47:01;;;;;;;6.68;5.70;;;29.60;63.60;;;;;;5075495;27;20063;-59
2022/07/06 09:49:27;;;;;;;7.35;5.57;;;29.60;63.50;;;;;;5049746;28;20031;-60
2022/07/06 09:51:59;;;;;;;6.30;5.13;;;29.60;63.30;;;;;;5066427;27;20039;-59
2022/07/06 09:54:25;;;;;;;6.05;5.22;;;29.60;63.20;;;;;;5065458;27;20047;-58
2022/07/06 09:56:51;;;;;;;6.45;5.45;;;29.60;63.20;;;;;;5066683;27;20032;-58
2022/07/06 09:59:36;;;;;;;6.07;5.30;;;29.60;62.90;;;;;;5064760;27;20036;-59
2022/07/06 10:02:07;;;;;;;5.75;5.15;;;29.60;63.10;;;;;;5068903;27;20031;-59
2022/07/06 10:04:33;;;;;;;6.32;4.93;;;29.60;63.00;;;;;;5075861;27;20500;-59
2022/07/06 10:07:00;;;;;;;6.32;4.93;;;29.70;62.70;;;;;;5063743;27;20027;-60
2022/07/06 10:09:28;;;;;;;5.85;5.00;;;29.70;62.70;;;;;;5073852;28;24254;-60
2022/07/06 10:12:00;;;;;;;7.20;5.28;;;29.70;62.80;;;;;;5068337;27;20063;-60
2022/07/06 10:14:29;;;;;;;5.80;4.40;;;29.70;62.70;;;;;;5077838;27;21474;-60
2022/07/06 10:17:05;;;;;;;6.45;5.50;;;29.70;62.20;;;;;;5077742;27;20024;-60
2022/07/06 10:19:31;;;;;;;5.93;4.90;;;29.70;62.10;;;;;;5071161;28;20060;-60
2022/07/06 10:22:00;;;;;;;6.22;5.10;;;29.70;62.00;;;;;;5080143;27;20035;-60
2022/07/06 10:24:27;;;;;;;6.63;5.32;;;29.70;62.00;;;;;;5077349;27;20499;-60
2022/07/06 10:26:52;;;;;;;4.88;4.35;;;29.70;62.40;;;;;;5083779;27;20085;-59
2022/07/06 10:29:18;;;;;;;5.28;4.57;;;29.70;62.40;;;;;;5079804;27;20120;-59
2022/07/06 10:31:46;;;;;;;4.75;4.20;;;29.70;62.30;;;;;;5078157;28;20495;-59
2022/07/06 10:34:14;;;;;;;5.63;4.88;;;29.60;62.30;;;;;;5083327;27;20163;-59
2022/07/06 10:36:41;;;;;;;6.78;4.95;;;29.60;62.40;;;;;;5082673;27;20036;-59
2022/07/06 10:41:52;;;;;;;5.78;5.07;;;29.60;62.60;;;;;;5080542;27;20123;-59
2022/07/06 10:44:27;;;;;;;5.00;4.50;;;29.60;62.20;;;;;;5080640;27;20084;-59
2022/07/06 10:46:56;;;;;;;5.50;4.53;;;29.60;62.00;;;;;;5073473;27;20335;-58
2022/07/06 10:49:24;;;;;;;8.90;4.88;;;29.60;61.90;;;;;;5082585;27;20081;-59
2022/07/06 10:51:51;;;;;;;5.95;4.90;;;29.60;61.70;;;;;;5075238;27;20069;-58
2022/07/06 10:54:18;;;;;;;5.88;4.82;;;29.60;61.70;;;;;;5075325;27;20097;-58
2022/07/06 10:56:50;;;;;;;6.28;4.85;;;29.60;61.50;;;;;;5082559;27;20024;-59
2022/07/06 10:59:18;;;;;;;5.55;4.70;;;29.60;61.50;;;;;;5080859;27;20433;-59
2022/07/06 11:02:15;;;;;;;5.82;4.70;;;29.60;61.40;;;;;;5075647;27;20032;-59
2022/07/06 11:04:47;;;;;;;7.00;5.15;;;29.60;60.70;;;;;;5076205;27;20035;-59
2022/07/06 11:07:14;;;;;;;5.43;4.72;;;29.50;60.80;;;;;;5074973;27;20094;-60
2022/07/06 11:09:47;;;;;;;7.20;5.43;;;29.60;60.70;;;;;;5084914;28;20032;-59
2022/07/06 11:12:20;;;;;;;5.35;4.80;;;29.60;60.60;;;;;;5074422;28;20027;-59
2022/07/06 11:14:50;;;;;;;5.22;4.60;;;29.70;60.70;;;;;;5066528;27;20062;-59
2022/07/06 11:17:17;;;;;;;5.10;4.60;;;29.70;60.60;;;;;;5076344;27;20030;-60
2022/07/06 11:20:08;;;;;;;5.93;4.63;;;29.70;60.40;;;;;;5071140;27;20787;-59
2022/07/06 11:22:36;;;;;;;5.35;4.28;;;29.70;60.90;;;;;;5077481;27;21923;-59
2022/07/06 11:25:03;;;;;;;4.68;4.13;;;29.60;60.80;;;;;;5073965;28;20390;-59
2022/07/06 11:27:29;;;;;;;5.78;4.70;;;29.60;61.20;;;;;;5074140;28;20044;-60
2022/07/06 11:29:55;;;;;;;5.50;4.55;;;29.60;60.90;;;;;;5085544;27;20416;-60
2022/07/06 11:32:25;;;;;;;5.43;4.68;;;29.60;60.80;;;;;;5070152;27;20027;-60
2022/07/06 11:34:51;;;;;;;5.57;4.80;;;29.70;60.50;;;;;;5078472;27;20582;-60
2022/07/06 11:37:18;;;;;;;5.07;4.57;;;29.70;60.70;;;;;;5076384;27;20093;-60
2022/07/06 11:39:45;;;;;;;5.13;4.47;;;29.70;60.30;;;;;;5074818;27;20032;-60
2022/07/06 11:42:13;;;;;;;5.57;4.68;;;29.70;60.30;;;;;;5067457;27;20032;-59
2022/07/06 11:44:40;;;;;;;5.95;4.78;;;29.70;59.90;;;;;;5067503;27;20035;-59
2022/07/06 11:47:07;;;;;;;9.60;4.93;;;29.80;60.00;;;;;;5070744;28;20027;-61
2022/07/06 11:49:34;;;;;;;5.47;4.72;;;29.80;59.90;;;;;;5062742;27;20066;-60
2022/07/06 11:52:04;;;;;;;5.10;4.60;;;29.80;59.70;;;;;;5074684;28;20640;-59
2022/07/06 11:54:32;;;;;;;6.40;4.57;;;29.90;59.60;;;;;;5077310;27;20026;-60
2022/07/06 11:56:59;;;;;;;5.70;5.10;;;29.90;58.70;;;;;;5075229;28;20043;-59
2022/07/06 11:59:29;;;;;;;7.72;4.47;;;30.00;58.40;;;;;;5072204;28;20137;-60
2022/07/06 12:02:02;;;;;;;4.87;4.17;;;30.00;58.60;;;;;;5068022;27;20032;-61
2022/07/06 12:04:30;;;;;;;5.97;4.93;;;30.00;58.70;;;;;;5078752;27;20146;-59
2022/07/06 12:06:59;;;;;;;6.63;4.70;;;30.00;59.00;;;;;;5072092;28;20120;-60
2022/07/06 12:09:25;;;;;;;5.15;4.30;;;30.00;59.00;;;;;;5072769;28;20055;-60
2022/07/06 12:11:50;;;;;;;6.00;4.45;;;30.00;58.70;;;;;;5079420;28;20574;-60
2022/07/06 12:14:20;;;;;;;6.15;4.90;;;30.00;59.00;;;;;;5074124;28;20532;-60
2022/07/06 12:16:48;;;;;;;5.00;4.40;;;30.00;59.30;;;;;;5073089;28;20070;-62
2022/07/06 12:19:14;;;;;;;5.82;4.80;;;30.00;59.60;;;;;;5068667;28;20039;-61
2022/07/06 12:21:51;;;;;;;4.68;4.05;;;30.00;59.70;;;;;;5074309;28;20026;-62
2022/07/06 12:24:24;;;;;;;4.82;4.30;;;29.90;59.50;;;;;;5073740;28;20032;-60
2022/07/06 12:26:51;;;;;;;5.10;4.60;;;29.90;59.90;;;;;;5074406;28;20031;-61
2022/07/06 12:29:17;;;;;;;5.60;4.53;;;29.90;59.70;;;;;;5073365;28;20046;-60
2022/07/06 12:31:56;;;;;;;5.28;4.78;;;29.90;59.50;;;;;;5073877;28;20463;-60
2022/07/06 12:34:24;;;;;;;5.00;4.28;;;29.90;59.40;;;;;;5075117;28;20020;-60
2022/07/06 12:36:55;;;;;;;5.97;5.10;;;30.00;59.70;;;;;;5077038;28;21596;-62
2022/07/06 12:39:28;;;;;;;5.28;4.63;;;29.90;59.10;;;;;;5074580;28;22292;-61
2022/07/06 12:41:59;;;;;;;6.82;4.57;;;29.90;59.30;;;;;;5072259;28;20032;-62
2022/07/06 12:44:25;;;;;;;6.70;4.57;;;29.90;59.60;;;;;;5064854;28;20505;-62
2022/07/06 12:47:05;;;;;;;5.50;5.00;;;29.90;59.80;;;;;;5075960;27;20039;-62
2022/07/06 12:49:32;;;;;;;5.32;4.50;;;29.90;60.10;;;;;;5079148;27;20066;-61
2022/07/06 12:51:59;;;;;;;5.32;4.47;;;29.90;60.30;;;;;;5071221;27;20047;-59
2022/07/06 12:54:46;;;;;;;7.00;4.45;;;29.90;60.80;;;;;;5071843;27;20031;-59